Time;durP1;ratioP1;P1;durP2;ratioP2;P2;SDS_P1;SDS_P2;PMS_P1;PMS_P2;Temp;Humidity;BMP_temperature;BMP_pressure;BME280_temperature;BME280_humidity;BME280_pressure;Samples;Min_cycle;Max_cycle;Signal;HPM_P1;HPM_P2
2023/09/29 00:03:31;;;;;;;5.28;3.45;;;9.10;99.90;;;;;;8363210;28;20067;-79
2023/09/29 00:07:32;;;;;;;4.22;2.90;;;9.00;99.90;;;;;;8376343;28;20024;-79
2023/09/29 00:11:33;;;;;;;5.22;3.30;;;9.10;99.90;;;;;;8377000;28;20389;-78
2023/09/29 00:15:33;;;;;;;4.97;3.20;;;9.10;99.90;;;;;;8369153;28;20059;-76
2023/09/29 00:19:34;;;;;;;5.47;3.30;;;9.20;99.90;;;;;;8368103;28;20028;-78
2023/09/29 00:23:35;;;;;;;5.60;3.13;;;9.10;99.90;;;;;;8371083;28;20017;-78
2023/09/29 00:27:35;;;;;;;3.95;3.03;;;9.10;99.90;;;;;;8361424;28;20074;-79
2023/09/29 00:31:36;;;;;;;6.38;2.85;;;8.90;99.90;;;;;;8370314;28;20039;-77
2023/09/29 00:35:37;;;;;;;6.78;2.90;;;8.80;99.90;;;;;;8362755;28;20078;-78
2023/09/29 00:39:37;;;;;;;3.70;2.40;;;8.70;99.90;;;;;;8375586;28;20484;-79
2023/09/29 00:43:38;;;;;;;3.80;2.63;;;8.50;99.90;;;;;;8377221;28;20021;-78
2023/09/29 00:47:39;;;;;;;4.53;2.45;;;8.50;99.90;;;;;;8362184;28;20037;-78
2023/09/29 00:51:39;;;;;;;3.30;2.33;;;8.40;99.90;;;;;;8393359;28;20029;-78
2023/09/29 00:55:44;;;;;;;3.42;2.28;;;8.20;99.90;;;;;;8375154;28;20043;-78
2023/09/29 00:59:46;;;;;;;3.78;2.60;;;8.10;99.90;;;;;;8373857;28;20036;-78
2023/09/29 01:03:46;;;;;;;4.43;3.00;;;8.00;99.90;;;;;;8373556;28;20048;-78
2023/09/29 01:07:48;;;;;;;4.80;3.15;;;8.10;99.90;;;;;;8372764;28;20039;-78
2023/09/29 01:11:49;;;;;;;8.48;3.13;;;8.20;99.90;;;;;;8361525;28;20044;-78
2023/09/29 01:15:49;;;;;;;5.35;2.70;;;8.20;99.90;;;;;;8362263;28;20138;-79
2023/09/29 01:19:51;;;;;;;3.97;2.60;;;8.10;99.90;;;;;;8389066;28;20039;-78
2023/09/29 01:23:52;;;;;;;5.35;3.03;;;8.10;99.90;;;;;;8366022;28;20048;-78
2023/09/29 01:27:54;;;;;;;4.65;3.42;;;8.00;99.90;;;;;;8367043;28;20034;-78
2023/09/29 01:31:55;;;;;;;3.67;3.00;;;7.90;99.90;;;;;;8366653;28;20039;-78
2023/09/29 01:35:55;;;;;;;8.82;2.63;;;7.90;99.90;;;;;;8381965;28;20021;-79
2023/09/29 01:39:56;;;;;;;6.57;2.72;;;7.80;99.90;;;;;;8387235;28;20094;-79
2023/09/29 01:43:56;;;;;;;4.10;2.50;;;7.70;99.90;;;;;;8369299;28;20082;-78
2023/09/29 01:47:57;;;;;;;3.10;2.40;;;7.70;99.90;;;;;;8362676;28;20032;-79
2023/09/29 01:51:57;;;;;;;5.93;2.88;;;7.60;99.90;;;;;;8370514;28;20031;-79
2023/09/29 01:55:58;;;;;;;4.95;3.38;;;7.50;99.90;;;;;;8378724;28;20498;-79
2023/09/29 01:59:58;;;;;;;5.63;2.85;;;7.50;99.90;;;;;;8368572;28;20024;-79
2023/09/29 02:04:00;;;;;;;3.60;2.70;;;7.50;99.90;;;;;;8386497;28;20044;-79
2023/09/29 02:08:04;;;;;;;4.13;3.00;;;7.40;99.90;;;;;;8391279;28;20079;-79
2023/09/29 02:12:06;;;;;;;6.03;2.92;;;7.40;99.90;;;;;;8376615;28;20055;-79
2023/09/29 02:16:12;;;;;;;4.35;3.05;;;7.30;99.90;;;;;;8387797;28;20044;-78
2023/09/29 02:20:15;;;;;;;4.47;3.22;;;7.40;99.90;;;;;;8361378;28;20523;-79
2023/09/29 02:24:15;;;;;;;6.18;3.22;;;7.40;99.90;;;;;;8366934;28;20020;-77
2023/09/29 02:28:16;;;;;;;4.60;3.10;;;7.30;99.90;;;;;;8372371;28;20028;-78
2023/09/29 02:32:16;;;;;;;4.88;3.33;;;7.30;99.90;;;;;;8373800;28;20028;-78
2023/09/29 02:36:17;;;;;;;4.72;3.40;;;7.30;99.90;;;;;;8368220;28;20020;-79
2023/09/29 02:40:18;;;;;;;5.90;3.90;;;7.40;99.90;;;;;;8368913;28;20025;-79
2023/09/29 02:44:18;;;;;;;5.22;3.35;;;7.50;99.90;;;;;;8367010;28;20027;-79
2023/09/29 02:48:19;;;;;;;4.22;3.25;;;7.40;99.90;;;;;;8361828;28;20489;-79
2023/09/29 02:52:20;;;;;;;4.18;3.08;;;7.40;99.90;;;;;;8350967;28;20039;-78
2023/09/29 02:56:23;;;;;;;5.00;3.53;;;7.40;99.90;;;;;;8360717;28;20028;-78
2023/09/29 03:00:26;;;;;;;6.75;3.42;;;7.40;99.90;;;;;;8367511;28;20025;-79
2023/09/29 03:04:27;;;;;;;5.47;3.40;;;7.30;99.90;;;;;;8365410;28;20489;-78
2023/09/29 03:08:28;;;;;;;5.68;3.42;;;7.30;99.90;;;;;;8374018;28;20016;-78
2023/09/29 03:12:28;;;;;;;5.60;3.63;;;7.40;99.90;;;;;;8369371;28;20559;-78
2023/09/29 03:16:29;;;;;;;6.40;4.10;;;7.40;99.90;;;;;;8372330;28;20032;-78
2023/09/29 03:20:29;;;;;;;5.57;3.92;;;7.50;99.90;;;;;;8371430;28;20049;-78
2023/09/29 03:24:30;;;;;;;5.68;4.22;;;7.60;99.90;;;;;;8376221;28;20041;-81
2023/09/29 03:28:32;;;;;;;5.25;4.10;;;7.70;99.90;;;;;;8372697;28;20078;-80
2023/09/29 03:32:33;;;;;;;4.32;3.47;;;7.70;99.90;;;;;;8399720;28;20024;-80
2023/09/29 03:36:34;;;;;;;4.93;3.33;;;7.70;99.90;;;;;;8372892;28;20027;-80
2023/09/29 03:40:35;;;;;;;4.10;3.00;;;7.50;99.90;;;;;;8364988;28;20523;-80
2023/09/29 03:44:36;;;;;;;3.63;3.03;;;7.50;99.90;;;;;;8379102;28;20108;-80
2023/09/29 03:48:38;;;;;;;5.10;3.42;;;7.50;99.90;;;;;;8396233;28;20055;-81
2023/09/29 03:52:39;;;;;;;6.35;3.72;;;7.40;99.90;;;;;;8369088;28;20521;-80
2023/09/29 03:56:40;;;;;;;9.45;3.50;;;7.30;99.90;;;;;;8394399;28;20048;-79
2023/09/29 04:00:41;;;;;;;5.95;3.40;;;7.20;99.90;;;;;;8368262;28;20047;-80
2023/09/29 04:04:41;;;;;;;5.13;3.63;;;7.10;99.90;;;;;;8396007;28;20028;-80
2023/09/29 04:08:42;;;;;;;5.25;3.70;;;7.20;99.90;;;;;;8378840;28;20025;-80
2023/09/29 04:12:47;;;;;;;4.70;3.40;;;7.20;99.90;;;;;;8377451;28;20464;-79
2023/09/29 04:16:47;;;;;;;5.80;3.38;;;7.20;99.90;;;;;;8375209;28;20016;-80
2023/09/29 04:20:48;;;;;;;9.50;4.10;;;7.00;99.90;;;;;;8377302;28;20500;-80
2023/09/29 04:24:48;;;;;;;4.88;3.70;;;7.10;99.90;;;;;;8375793;28;20029;-80
2023/09/29 04:28:51;;;;;;;7.10;3.55;;;7.10;99.90;;;;;;8376461;28;20043;-80
2023/09/29 04:32:55;;;;;;;5.22;3.58;;;7.10;99.90;;;;;;8398325;28;20032;-81
2023/09/29 04:36:56;;;;;;;6.60;4.03;;;7.10;99.90;;;;;;8396357;28;20028;-79
2023/09/29 04:40:57;;;;;;;5.90;4.00;;;7.10;99.90;;;;;;8394682;28;20029;-80
2023/09/29 04:44:58;;;;;;;4.85;3.40;;;7.00;99.90;;;;;;8362234;28;20107;-81
2023/09/29 04:48:58;;;;;;;6.03;3.75;;;7.00;99.90;;;;;;8377198;28;20054;-80
2023/09/29 04:52:59;;;;;;;6.05;4.20;;;7.00;99.90;;;;;;8368064;28;20509;-80
2023/09/29 04:56:59;;;;;;;5.97;4.20;;;7.10;99.90;;;;;;8382289;28;20017;-80
2023/09/29 05:01:01;;;;;;;6.15;3.85;;;7.00;99.90;;;;;;8373937;28;20013;-80
2023/09/29 05:05:01;;;;;;;6.20;3.92;;;7.00;99.90;;;;;;8374598;28;20016;-80
2023/09/29 05:09:02;;;;;;;5.35;3.60;;;6.90;99.90;;;;;;8390501;28;20064;-81
2023/09/29 05:13:04;;;;;;;5.32;3.40;;;6.90;99.90;;;;;;8371868;28;20020;-80
2023/09/29 05:17:04;;;;;;;5.40;3.78;;;6.90;99.90;;;;;;8366382;28;20420;-80
2023/09/29 05:21:05;;;;;;;6.03;3.90;;;6.90;99.90;;;;;;8376935;28;20025;-80
2023/09/29 05:25:06;;;;;;;6.97;4.03;;;6.90;99.90;;;;;;8371301;28;20052;-80
2023/09/29 05:29:07;;;;;;;6.57;4.68;;;6.90;99.90;;;;;;8373394;28;20155;-80
2023/09/29 05:33:07;;;;;;;6.85;5.28;;;7.00;99.90;;;;;;8368395;28;20698;-80
2023/09/29 05:37:08;;;;;;;7.95;5.45;;;7.30;99.90;;;;;;8379299;28;20115;-80
2023/09/29 05:41:08;;;;;;;7.07;5.15;;;7.40;99.90;;;;;;8370799;28;20040;-78
2023/09/29 05:45:10;;;;;;;8.88;4.72;;;7.50;99.90;;;;;;8369801;28;20075;-78
2023/09/29 05:49:11;;;;;;;7.13;5.22;;;7.50;99.90;;;;;;8374238;28;20518;-78
2023/09/29 05:53:12;;;;;;;8.40;4.70;;;7.50;99.90;;;;;;8367655;28;20025;-78
2023/09/29 05:57:12;;;;;;;8.73;5.10;;;7.60;99.90;;;;;;8388276;28;20024;-77
2023/09/29 06:01:14;;;;;;;8.88;6.20;;;7.70;99.90;;;;;;8380572;28;20052;-78
2023/09/29 06:05:15;;;;;;;9.25;6.60;;;7.90;99.90;;;;;;8378473;28;20053;-78
2023/09/29 06:09:15;;;;;;;9.63;6.22;;;8.10;99.90;;;;;;8400231;28;20653;-78
2023/09/29 06:13:16;;;;;;;8.05;5.90;;;8.30;99.90;;;;;;8368457;28;20029;-78
2023/09/29 06:17:16;;;;;;;10.88;6.18;;;8.60;99.90;;;;;;8382429;28;20677;-79
2023/09/29 06:21:17;;;;;;;8.25;5.75;;;8.80;99.90;;;;;;8382029;28;20039;-78
2023/09/29 06:25:17;;;;;;;7.28;5.40;;;9.10;99.90;;;;;;8375203;28;20019;-76
2023/09/29 06:29:18;;;;;;;6.85;5.10;;;9.30;99.90;;;;;;8375765;28;20506;-79
2023/09/29 06:33:19;;;;;;;8.43;5.50;;;9.70;99.90;;;;;;8370468;28;20054;-78
2023/09/29 06:37:19;;;;;;;16.45;5.47;;;9.90;99.90;;;;;;8369992;28;20123;-80
2023/09/29 06:41:20;;;;;;;7.63;5.57;;;10.20;99.90;;;;;;8369491;28;20043;-79
2023/09/29 06:45:21;;;;;;;7.35;4.78;;;10.50;99.90;;;;;;8366996;28;20021;-79
2023/09/29 06:49:21;;;;;;;7.70;5.38;;;10.70;99.90;;;;;;8385124;28;20034;-79
2023/09/29 06:53:22;;;;;;;8.30;5.22;;;10.80;99.90;;;;;;8372928;28;20040;-79
2023/09/29 06:57:23;;;;;;;7.38;5.07;;;10.90;99.90;;;;;;8374007;28;20028;-79
2023/09/29 07:01:26;;;;;;;7.35;5.30;;;10.90;99.90;;;;;;8360814;28;20056;-80
2023/09/29 07:05:26;;;;;;;7.40;4.93;;;11.00;99.90;;;;;;8374859;28;20384;-80
2023/09/29 07:09:28;;;;;;;7.18;4.75;;;11.10;99.90;;;;;;8366230;28;20075;-79
2023/09/29 07:13:29;;;;;;;7.07;4.75;;;11.10;99.90;;;;;;8375899;28;20020;-79
2023/09/29 07:17:29;;;;;;;6.80;4.95;;;11.20;99.90;;;;;;8386477;28;20027;-79
2023/09/29 07:21:30;;;;;;;7.93;5.15;;;11.40;99.90;;;;;;8390205;28;20032;-79
2023/09/29 07:25:31;;;;;;;8.57;5.60;;;11.70;99.90;;;;;;8371447;28;20395;-79
2023/09/29 07:29:31;;;;;;;7.93;5.13;;;12.00;99.90;;;;;;8384095;28;20023;-78
2023/09/29 07:33:32;;;;;;;8.55;5.38;;;12.20;99.90;;;;;;8368033;28;20028;-79
2023/09/29 07:37:32;;;;;;;7.03;5.03;;;12.60;99.90;;;;;;8369314;28;20049;-79
2023/09/29 07:41:33;;;;;;;6.88;4.97;;;12.90;99.90;;;;;;8369812;28;20036;-80
2023/09/29 07:45:33;;;;;;;8.32;5.07;;;13.10;99.90;;;;;;8384428;28;20108;-82
2023/09/29 07:49:40;;;;;;;6.82;4.60;;;13.30;99.90;;;;;;8371693;28;20082;-80
2023/09/29 07:53:40;;;;;;;7.68;4.97;;;13.50;99.90;;;;;;8365427;28;20029;-80
2023/09/29 07:57:41;;;;;;;7.60;5.10;;;13.90;99.90;;;;;;8374897;28;20564;-79
2023/09/29 08:01:43;;;;;;;5.93;4.15;;;15.00;99.90;;;;;;8386664;28;20024;-80
2023/09/29 08:05:43;;;;;;;5.90;4.53;;;15.70;99.90;;;;;;8374885;28;20017;-79
2023/09/29 08:09:44;;;;;;;5.93;4.00;;;16.20;99.90;;;;;;8368846;28;20075;-83
2023/09/29 08:13:46;;;;;;;7.68;4.40;;;16.60;99.90;;;;;;8370257;28;20460;-82
2023/09/29 08:17:47;;;;;;;5.53;3.65;;;16.80;99.90;;;;;;8372882;28;20032;-82
2023/09/29 08:21:49;;;;;;;5.28;3.60;;;17.00;99.90;;;;;;8372069;28;20033;-83
2023/09/29 08:25:49;;;;;;;6.93;4.50;;;17.60;99.90;;;;;;8370564;28;20025;-82
2023/09/29 08:29:50;;;;;;;6.22;3.75;;;17.80;99.90;;;;;;8369123;28;20032;-80
2023/09/29 08:33:50;;;;;;;5.25;3.30;;;18.30;99.90;;;;;;8389925;28;20152;-80
2023/09/29 08:37:51;;;;;;;5.82;3.92;;;18.50;99.90;;;;;;8372883;28;20027;-81
2023/09/29 08:42:05;;;;;;;5.20;3.30;;;18.90;99.90;;;;;;8374989;28;20024;-80
2023/09/29 08:46:09;;;;;;;4.93;3.72;;;19.20;99.90;;;;;;8374673;28;20017;-80
2023/09/29 08:50:11;;;;;;;5.97;4.00;;;19.50;99.90;;;;;;8395083;28;20508;-80
2023/09/29 08:54:11;;;;;;;6.03;4.05;;;19.60;99.90;;;;;;8397469;28;20021;-81
2023/09/29 08:58:12;;;;;;;5.18;3.50;;;19.80;99.90;;;;;;8376262;28;20115;-81
2023/09/29 09:02:13;;;;;;;5.05;3.42;;;19.90;99.90;;;;;;8375536;28;20029;-80
2023/09/29 09:06:23;;;;;;;5.38;3.05;;;20.10;99.90;;;;;;8359756;28;20028;-80
2023/09/29 09:10:34;;;;;;;5.90;3.50;;;20.40;99.90;;;;;;8364444;28;20558;-80
2023/09/29 09:14:40;;;;;;;5.68;3.17;;;20.50;99.90;;;;;;8389474;28;20031;-81
2023/09/29 09:18:40;;;;;;;4.90;3.10;;;20.80;99.90;;;;;;8371466;28;20036;-81
2023/09/29 09:22:42;;;;;;;4.50;3.53;;;21.20;99.90;;;;;;8382294;28;20074;-80
2023/09/29 09:26:42;;;;;;;3.83;3.03;;;21.70;99.90;;;;;;8366820;28;20110;-82
2023/09/29 09:30:46;;;;;;;6.03;3.58;;;22.10;99.90;;;;;;8367523;28;20084;-80
2023/09/29 09:34:46;;;;;;;6.22;3.08;;;22.50;99.90;;;;;;8380886;28;20031;-80
2023/09/29 09:38:48;;;;;;;4.80;3.35;;;22.90;99.90;;;;;;8368700;28;20055;-80
2023/09/29 09:42:50;;;;;;;4.45;3.08;;;22.80;99.90;;;;;;8376518;28;20024;-80
2023/09/29 09:47:03;;;;;;;5.97;3.35;;;22.90;99.90;;;;;;8358019;28;20024;-81
2023/09/29 09:51:03;;;;;;;4.82;3.00;;;23.40;99.90;;;;;;8369953;28;20020;-80
2023/09/29 09:55:12;;;;;;;8.45;3.35;;;24.10;99.90;;;;;;8367790;28;20056;-81
2023/09/29 09:59:14;;;;;;;5.85;2.92;;;24.70;99.90;;;;;;8367607;28;20053;-82
2023/09/29 10:03:16;;;;;;;3.75;2.85;;;24.60;99.90;;;;;;8368857;28;20477;-82
2023/09/29 10:07:20;;;;;;;4.50;3.00;;;24.80;99.90;;;;;;8389415;28;20041;-80
2023/09/29 10:11:26;;;;;;;4.63;2.97;;;25.20;99.90;;;;;;8376359;28;20077;-81
2023/09/29 10:15:29;;;;;;;4.70;3.10;;;25.00;99.90;;;;;;8372150;28;20017;-82
2023/09/29 10:19:39;;;;;;;3.42;2.70;;;24.80;99.90;;;;;;8371699;28;20111;-81
2023/09/29 10:23:45;;;;;;;4.70;3.25;;;24.80;99.90;;;;;;8364773;28;20393;-81
2023/09/29 10:27:52;;;;;;;4.82;3.10;;;24.50;99.90;;;;;;8366901;28;20032;-81
2023/09/29 10:31:56;;;;;;;4.07;2.92;;;24.30;99.90;;;;;;8367350;28;20078;-80
2023/09/29 10:35:57;;;;;;;3.40;2.55;;;24.80;99.90;;;;;;8374071;28;20025;-82
2023/09/29 10:39:57;;;;;;;4.22;3.03;;;25.30;99.90;;;;;;8370472;28;20024;-81
2023/09/29 10:43:59;;;;;;;5.68;3.22;;;25.10;99.90;;;;;;8359572;28;20167;-81
2023/09/29 10:48:08;;;;;;;5.53;2.90;;;25.00;99.90;;;;;;8377383;28;20032;-81
2023/09/29 10:52:18;;;;;;;4.25;2.67;;;25.30;99.90;;;;;;8381825;28;20032;-81
2023/09/29 10:56:23;;;;;;;6.63;2.87;;;26.90;99.90;;;;;;8393268;28;20021;-80
2023/09/29 11:00:24;;;;;;;4.07;2.85;;;28.70;99.90;;;;;;8371943;28;20256;-82
2023/09/29 11:04:25;;;;;;;4.28;2.80;;;28.40;99.90;;;;;;8364044;28;20017;-81
2023/09/29 11:08:32;;;;;;;3.53;2.70;;;27.10;99.90;;;;;;8377708;28;20013;-82
2023/09/29 11:12:34;;;;;;;3.22;2.45;;;27.40;99.90;;;;;;8376600;28;20035;-82
2023/09/29 11:16:36;;;;;;;4.68;2.88;;;29.20;99.90;;;;;;8376844;28;20155;-82
2023/09/29 11:20:37;;;;;;;5.32;2.60;;;30.00;99.60;;;;;;8374763;28;20025;-82
2023/09/29 11:24:43;;;;;;;4.00;2.92;;;30.10;99.90;;;;;;8378355;28;20032;-82
2023/09/29 11:28:48;;;;;;;7.15;2.70;;;29.60;99.00;;;;;;8368517;28;20396;-81
2023/09/29 11:32:48;;;;;;;4.60;2.55;;;29.80;97.70;;;;;;8370606;28;20061;-82
2023/09/29 11:36:50;;;;;;;9.82;7.45;;;30.40;96.80;;;;;;8396005;28;20024;-82
2023/09/29 11:40:51;;;;;;;8.65;6.57;;;31.50;94.30;;;;;;8383365;28;20550;-82
2023/09/29 11:44:52;;;;;;;5.93;4.45;;;31.50;92.80;;;;;;8382032;28;20638;-82
2023/09/29 11:48:53;;;;;;;6.03;4.35;;;30.30;94.80;;;;;;8384486;28;20040;-82
2023/09/29 11:52:54;;;;;;;5.20;2.72;;;30.60;93.60;;;;;;8383666;28;20016;-81
2023/09/29 11:56:54;;;;;;;6.28;2.50;;;31.30;95.50;;;;;;8384700;28;20479;-81
2023/09/29 12:00:55;;;;;;;3.80;2.42;;;31.60;91.20;;;;;;8375056;28;20020;-81
2023/09/29 12:04:56;;;;;;;4.20;3.30;;;31.20;93.00;;;;;;8377628;28;20527;-81
2023/09/29 12:08:56;;;;;;;136.63;73.93;;;30.80;92.10;;;;;;8363975;28;20016;-80
2023/09/29 12:13:00;;;;;;;74.00;44.78;;;31.30;90.50;;;;;;8393220;28;20024;-82
2023/09/29 12:17:00;;;;;;;59.60;40.63;;;31.90;89.50;;;;;;8376898;28;20035;-84
2023/09/29 12:21:10;;;;;;;24.40;20.67;;;32.80;86.40;;;;;;8371172;28;20024;-85
2023/09/29 12:25:13;;;;;;;12.05;7.13;;;32.80;83.50;;;;;;8372029;28;20549;-83
2023/09/29 12:29:13;;;;;;;5.13;3.17;;;31.30;83.90;;;;;;8392454;28;20024;-83
2023/09/29 12:33:14;;;;;;;5.55;2.60;;;31.20;87.10;;;;;;8401164;28;20024;-84
2023/09/29 12:37:14;;;;;;;2.90;2.35;;;31.80;87.20;;;;;;8388563;28;20417;-84
2023/09/29 12:41:25;;;;;;;3.35;2.65;;;32.40;82.00;;;;;;8375803;28;20029;-84
2023/09/29 12:45:26;;;;;;;2.92;2.03;;;32.60;83.60;;;;;;8364875;28;20025;-83
2023/09/29 12:49:29;;;;;;;3.45;2.63;;;32.40;78.00;;;;;;8383659;28;20059;-84
2023/09/29 12:53:36;;;;;;;3.78;2.58;;;32.40;82.50;;;;;;8369795;28;20411;-84
2023/09/29 12:57:38;;;;;;;4.45;2.55;;;33.40;79.40;;;;;;8391985;28;20083;-83
2023/09/29 13:01:39;;;;;;;5.20;2.30;;;33.60;76.30;;;;;;8391088;28;20031;-82
2023/09/29 13:05:46;;;;;;;2.97;2.22;;;32.60;78.20;;;;;;8386176;28;20024;-84
2023/09/29 13:09:47;;;;;;;2.60;2.40;;;32.40;77.90;;;;;;8404523;28;20091;-82
2023/09/29 13:13:56;;;;;;;16.23;3.60;;;32.40;79.70;;;;;;8377504;28;20032;-84
2023/09/29 13:17:59;;;;;;;5.37;2.90;;;33.10;77.40;;;;;;8367572;28;20107;-84
2023/09/29 13:22:20;;;;;;;3.13;2.60;;;33.70;75.90;;;;;;8377096;28;20094;-85
2023/09/29 13:26:29;;;;;;;3.00;2.60;;;33.10;75.30;;;;;;8377828;28;20032;-84
2023/09/29 13:30:40;;;;;;;3.45;2.53;;;32.80;76.00;;;;;;8374604;28;20086;-84
2023/09/29 13:34:41;;;;;;;3.88;2.20;;;33.80;75.00;;;;;;8401584;28;20475;-84
2023/09/29 13:38:45;;;;;;;2.42;2.10;;;34.40;71.00;;;;;;8382571;28;20048;-83
2023/09/29 13:42:51;;;;;;;2.88;2.33;;;33.90;72.70;;;;;;8378155;28;20029;-83
2023/09/29 13:47:15;;;;;;;3.65;2.50;;;32.10;75.10;;;;;;8389688;28;20032;-84
2023/09/29 13:51:15;;;;;;;4.00;2.60;;;29.30;83.40;;;;;;8388085;28;20028;-84
2023/09/29 13:55:16;;;;;;;3.60;2.28;;;29.00;85.60;;;;;;8410703;28;20045;-84
2023/09/29 13:59:16;;;;;;;11.70;8.55;;;31.00;80.20;;;;;;8370052;28;20024;-84
2023/09/29 14:03:20;;;;;;;14.38;13.02;;;29.70;84.70;;;;;;8370919;28;20016;-84
2023/09/29 14:07:21;;;;;;;4.05;3.40;;;30.10;85.40;;;;;;8367042;28;20111;-84
2023/09/29 14:11:35;;;;;;;3.17;2.40;;;32.00;78.80;;;;;;8396119;28;20035;-84
2023/09/29 14:15:45;;;;;;;3.05;2.53;;;32.40;77.00;;;;;;8374334;28;20028;-85
2023/09/29 14:19:51;;;;;;;3.13;2.35;;;32.80;77.70;;;;;;8361939;28;20032;-83
2023/09/29 14:23:51;;;;;;;2.75;2.20;;;30.70;81.60;;;;;;8370675;28;20035;-84
2023/09/29 14:27:52;;;;;;;3.08;2.50;;;31.50;79.70;;;;;;8362101;28;20013;-83
2023/09/29 14:31:53;;;;;;;4.72;2.42;;;31.30;78.80;;;;;;8388420;28;20075;-84
2023/09/29 14:35:54;;;;;;;4.07;2.38;;;29.50;83.10;;;;;;8373638;28;20025;-86
2023/09/29 14:39:55;;;;;;;5.43;2.67;;;28.20;89.10;;;;;;8376455;28;20031;-84
2023/09/29 14:43:56;;;;;;;3.25;2.60;;;28.70;87.70;;;;;;8400297;28;20424;-83
2023/09/29 14:47:56;;;;;;;2.65;2.30;;;28.50;88.10;;;;;;8399048;28;20057;-85
2023/09/29 14:51:58;;;;;;;4.72;2.55;;;28.20;89.80;;;;;;8369145;28;20057;-84
2023/09/29 14:56:04;;;;;;;4.15;2.92;;;27.60;90.90;;;;;;8373034;28;20032;-85
2023/09/29 15:00:05;;;;;;;3.38;2.35;;;27.00;91.70;;;;;;8382613;28;20450;-85
2023/09/29 15:04:06;;;;;;;6.70;2.35;;;26.30;94.00;;;;;;8396884;28;20020;-84
2023/09/29 15:08:07;;;;;;;3.47;2.60;;;25.90;95.20;;;;;;8404595;28;20048;-82
2023/09/29 15:12:07;;;;;;;3.20;2.42;;;25.50;96.60;;;;;;8391012;28;20021;-82
2023/09/29 15:16:15;;;;;;;3.55;2.75;;;25.10;97.50;;;;;;8394158;28;20124;-81
2023/09/29 15:20:16;;;;;;;3.70;2.20;;;24.80;97.80;;;;;;8387514;28;20024;-82
2023/09/29 15:24:16;;;;;;;3.45;2.70;;;24.70;98.30;;;;;;8396381;28;20028;-82
2023/09/29 15:28:17;;;;;;;4.57;2.60;;;24.70;99.00;;;;;;8378848;28;20024;-81
2023/09/29 15:32:17;;;;;;;4.30;2.50;;;24.80;98.80;;;;;;8391488;28;20032;-82
2023/09/29 15:36:18;;;;;;;4.75;3.05;;;25.00;98.60;;;;;;8389950;28;20129;-82
2023/09/29 15:40:18;;;;;;;3.90;2.85;;;24.80;99.90;;;;;;8388538;28;20020;-82
2023/09/29 15:44:19;;;;;;;4.45;3.22;;;24.50;99.90;;;;;;8389520;28;20020;-81
2023/09/29 15:48:19;;;;;;;3.50;2.60;;;24.40;99.90;;;;;;8399799;28;20032;-81
2023/09/29 15:52:20;;;;;;;3.28;2.83;;;24.10;99.90;;;;;;8380807;28;20020;-82
2023/09/29 15:56:20;;;;;;;4.50;3.03;;;23.90;99.90;;;;;;8403398;28;20020;-82
2023/09/29 16:00:21;;;;;;;4.35;2.83;;;23.90;99.90;;;;;;8388610;28;20381;-82
2023/09/29 16:04:22;;;;;;;5.45;2.88;;;23.60;99.90;;;;;;8385466;28;20021;-81
2023/09/29 16:08:23;;;;;;;4.15;2.60;;;23.50;99.90;;;;;;8373059;28;20028;-82
2023/09/29 16:12:24;;;;;;;5.53;2.72;;;23.40;99.90;;;;;;8384074;28;20024;-82
2023/09/29 16:16:24;;;;;;;4.50;2.97;;;23.50;99.90;;;;;;8373743;28;20045;-82
2023/09/29 16:20:25;;;;;;;4.15;2.67;;;23.40;99.90;;;;;;8377730;28;20697;-82
2023/09/29 16:24:25;;;;;;;3.60;2.80;;;23.30;99.90;;;;;;8398475;28;20051;-82
2023/09/29 16:28:26;;;;;;;3.95;3.00;;;23.10;99.90;;;;;;8396313;28;20025;-82
2023/09/29 16:32:26;;;;;;;3.45;2.60;;;23.10;99.90;;;;;;8371379;28;20400;-82
2023/09/29 16:36:30;;;;;;;5.72;2.80;;;23.00;99.90;;;;;;8395165;28;20021;-82
2023/09/29 16:40:30;;;;;;;6.50;3.28;;;22.70;99.90;;;;;;8378706;28;20036;-82
2023/09/29 16:44:31;;;;;;;4.65;3.50;;;22.20;99.90;;;;;;8365720;28;20017;-81
2023/09/29 16:48:31;;;;;;;5.22;3.60;;;22.00;99.90;;;;;;8377939;28;20543;-80
2023/09/29 16:52:32;;;;;;;4.47;3.25;;;21.60;99.90;;;;;;8376974;28;20412;-79
2023/09/29 16:56:32;;;;;;;4.90;3.20;;;21.30;99.90;;;;;;8371638;28;20051;-81
2023/09/29 17:00:34;;;;;;;3.58;2.50;;;20.90;99.90;;;;;;8398161;28;20119;-82
2023/09/29 17:04:35;;;;;;;3.50;2.88;;;20.60;99.90;;;;;;8379855;28;20370;-81
2023/09/29 17:08:36;;;;;;;5.35;3.03;;;20.50;99.90;;;;;;8398772;28;20061;-82
2023/09/29 17:12:37;;;;;;;4.78;3.05;;;20.40;99.90;;;;;;8390873;28;20488;-80
2023/09/29 17:16:38;;;;;;;5.05;3.33;;;20.30;99.90;;;;;;8390021;28;20485;-82
2023/09/29 17:20:39;;;;;;;6.78;3.53;;;20.10;99.90;;;;;;8378327;28;20035;-81
2023/09/29 17:24:41;;;;;;;3.95;3.47;;;20.00;99.90;;;;;;8378522;28;20020;-82
2023/09/29 17:28:41;;;;;;;5.80;3.85;;;19.60;99.90;;;;;;8370551;28;20058;-82
2023/09/29 17:32:42;;;;;;;5.47;3.92;;;19.40;99.90;;;;;;8367537;28;20044;-82
2023/09/29 17:36:43;;;;;;;4.93;3.55;;;19.30;99.90;;;;;;8382101;28;20052;-82
2023/09/29 17:40:47;;;;;;;4.35;3.60;;;19.10;99.90;;;;;;8371324;28;20028;-81
2023/09/29 17:44:47;;;;;;;5.30;3.75;;;19.00;99.90;;;;;;8386827;28;20021;-82
2023/09/29 17:48:48;;;;;;;4.75;3.70;;;18.90;99.90;;;;;;8375937;28;20106;-81
2023/09/29 17:52:48;;;;;;;6.57;3.63;;;18.80;99.90;;;;;;8376494;28;20028;-82
2023/09/29 17:56:49;;;;;;;4.97;3.45;;;18.80;99.90;;;;;;8373010;28;20028;-82
2023/09/29 18:00:50;;;;;;;8.00;3.47;;;18.90;99.90;;;;;;8394478;28;20132;-82
2023/09/29 18:04:50;;;;;;;7.38;3.22;;;19.00;99.90;;;;;;8368779;28;20036;-81
2023/09/29 18:08:51;;;;;;;11.27;3.80;;;19.00;99.90;;;;;;8362222;28;20033;-82
2023/09/29 18:12:52;;;;;;;6.45;3.40;;;19.20;99.90;;;;;;8371111;28;20035;-82
2023/09/29 18:16:52;;;;;;;5.45;2.88;;;19.60;99.90;;;;;;8372541;28;20075;-81
2023/09/29 18:20:57;;;;;;;4.32;2.65;;;19.80;99.90;;;;;;8383188;28;20404;-81
2023/09/29 18:24:57;;;;;;;6.63;2.50;;;20.10;99.90;;;;;;8373871;28;20017;-82
2023/09/29 18:28:58;;;;;;;5.28;3.17;;;20.20;99.90;;;;;;8389297;28;20071;-81
2023/09/29 18:32:58;;;;;;;5.93;2.70;;;20.20;99.90;;;;;;8383347;28;20028;-81
2023/09/29 18:36:59;;;;;;;4.10;2.58;;;20.10;99.90;;;;;;8390810;28;20024;-81
2023/09/29 18:40:59;;;;;;;4.63;2.55;;;20.00;99.90;;;;;;8367919;28;20032;-81
2023/09/29 18:45:00;;;;;;;4.47;2.78;;;19.90;99.90;;;;;;8358482;28;20508;-79
2023/09/29 18:49:01;;;;;;;5.97;3.03;;;20.00;99.90;;;;;;8368279;28;20377;-81
2023/09/29 18:53:01;;;;;;;4.32;2.95;;;19.90;99.90;;;;;;8388653;28;20071;-81
2023/09/29 18:57:03;;;;;;;6.03;3.00;;;19.60;99.90;;;;;;8370547;28;20043;-81
2023/09/29 19:01:07;;;;;;;6.05;3.05;;;19.40;99.90;;;;;;8378364;28;20032;-81
2023/09/29 19:05:08;;;;;;;6.53;3.10;;;19.60;99.90;;;;;;8393838;28;20029;-82
2023/09/29 19:09:10;;;;;;;5.50;3.30;;;19.20;99.90;;;;;;8382001;28;20037;-81
2023/09/29 19:13:11;;;;;;;5.63;3.08;;;19.10;99.90;;;;;;8400421;28;20337;-82
2023/09/29 19:17:11;;;;;;;5.28;3.15;;;18.90;99.90;;;;;;8378398;28;20020;-81
2023/09/29 19:21:20;;;;;;;7.43;3.47;;;19.20;99.90;;;;;;8372526;28;20029;-81
2023/09/29 19:25:21;;;;;;;7.03;3.97;;;19.00;99.90;;;;;;8368586;28;20044;-81
2023/09/29 19:29:22;;;;;;;7.78;3.47;;;18.80;99.90;;;;;;8370532;28;20035;-82
2023/09/29 19:33:22;;;;;;;7.45;4.00;;;18.70;99.90;;;;;;8364981;28;20028;-82
2023/09/29 19:37:23;;;;;;;9.05;3.88;;;18.20;99.90;;;;;;8367306;28;20021;-81
2023/09/29 19:41:25;;;;;;;8.52;4.55;;;18.10;99.90;;;;;;8365225;28;20396;-81
2023/09/29 19:45:26;;;;;;;10.10;4.97;;;18.30;99.90;;;;;;8388712;28;20091;-81
2023/09/29 19:49:28;;;;;;;11.23;5.18;;;18.20;99.90;;;;;;8370885;28;20535;-82
2023/09/29 19:53:29;;;;;;;13.38;5.25;;;18.00;99.90;;;;;;8368055;28;20126;-82
2023/09/29 19:57:30;;;;;;;11.48;5.13;;;17.80;99.90;;;;;;8365270;28;20027;-82
2023/09/29 20:01:31;;;;;;;10.63;4.75;;;17.60;99.90;;;;;;8393127;28;20036;-82
2023/09/29 20:05:33;;;;;;;11.55;5.28;;;17.10;99.90;;;;;;8397465;28;20027;-81
2023/09/29 20:09:34;;;;;;;11.65;5.32;;;16.80;99.90;;;;;;8390941;28;20485;-81
2023/09/29 20:13:37;;;;;;;12.80;5.57;;;16.60;99.90;;;;;;8385047;28;20017;-82
2023/09/29 20:17:38;;;;;;;12.35;5.38;;;16.60;99.90;;;;;;8367085;28;20029;-81
2023/09/29 20:21:39;;;;;;;13.65;6.13;;;16.60;99.90;;;;;;8396904;28;20055;-82
2023/09/29 20:25:40;;;;;;;17.10;6.60;;;16.50;99.90;;;;;;8379076;28;20024;-80
2023/09/29 20:29:40;;;;;;;14.35;5.85;;;16.40;99.90;;;;;;8372269;28;20673;-81
2023/09/29 20:33:41;;;;;;;13.55;6.03;;;16.10;99.90;;;;;;8375484;28;20496;-82
2023/09/29 20:37:41;;;;;;;16.77;6.75;;;16.00;99.90;;;;;;8373429;28;20036;-82
2023/09/29 20:41:42;;;;;;;18.98;7.38;;;15.90;99.90;;;;;;8364824;28;20040;-81
2023/09/29 20:45:47;;;;;;;16.38;7.07;;;15.70;99.90;;;;;;8391077;28;20111;-81
2023/09/29 20:49:48;;;;;;;19.08;7.38;;;15.80;99.90;;;;;;8370418;28;20036;-82
2023/09/29 20:53:48;;;;;;;16.35;7.65;;;15.60;99.90;;;;;;8361246;28;20027;-79
2023/09/29 20:57:49;;;;;;;17.63;7.57;;;15.50;99.90;;;;;;8369403;28;20028;-81
2023/09/29 21:01:50;;;;;;;19.65;8.13;;;15.40;99.90;;;;;;8371476;28;20028;-82